sensor_id;sensor_type;location;lat;lon;timestamp;P1;durP1;ratioP1;P2;durP2;ratioP2
18653;SDS011;9456;47.824;16.228;2022-07-29T00:00:25;7.83;;;7.13;;
18653;SDS011;9456;47.824;16.228;2022-07-29T00:02:53;7.77;;;7.07;;
18653;SDS011;9456;47.824;16.228;2022-07-29T00:05:22;7.67;;;6.90;;
18653;SDS011;9456;47.824;16.228;2022-07-29T00:07:50;7.73;;;7.00;;
18653;SDS011;9456;47.824;16.228;2022-07-29T00:10:18;7.47;;;6.83;;
18653;SDS011;9456;47.824;16.228;2022-07-29T00:12:46;7.57;;;6.93;;
18653;SDS011;9456;47.824;16.228;2022-07-29T00:15:31;7.17;;;6.57;;
18653;SDS011;9456;47.824;16.228;2022-07-29T00:18:00;7.30;;;6.67;;
18653;SDS011;9456;47.824;16.228;2022-07-29T00:23:37;7.87;;;7.10;;
18653;SDS011;9456;47.824;16.228;2022-07-29T00:26:05;7.10;;;6.60;;
18653;SDS011;9456;47.824;16.228;2022-07-29T00:28:40;7.60;;;7.00;;
18653;SDS011;9456;47.824;16.228;2022-07-29T00:31:08;7.63;;;7.03;;
18653;SDS011;9456;47.824;16.228;2022-07-29T00:33:35;7.50;;;6.90;;
18653;SDS011;9456;47.824;16.228;2022-07-29T00:38:53;7.90;;;7.27;;
18653;SDS011;9456;47.824;16.228;2022-07-29T00:44:19;7.97;;;7.27;;
18653;SDS011;9456;47.824;16.228;2022-07-29T00:50:03;7.97;;;7.37;;
18653;SDS011;9456;47.824;16.228;2022-07-29T00:55:50;9.30;;;8.40;;
18653;SDS011;9456;47.824;16.228;2022-07-29T00:58:20;9.50;;;7.97;;
18653;SDS011;9456;47.824;16.228;2022-07-29T01:09:37;7.87;;;7.27;;
18653;SDS011;9456;47.824;16.228;2022-07-29T01:29:27;8.53;;;7.77;;
18653;SDS011;9456;47.824;16.228;2022-07-29T01:37:57;8.97;;;8.17;;
18653;SDS011;9456;47.824;16.228;2022-07-29T04:09:41;11.67;;;10.67;;
18653;SDS011;9456;47.824;16.228;2022-07-29T04:12:08;10.93;;;10.03;;
18653;SDS011;9456;47.824;16.228;2022-07-29T04:14:36;10.87;;;9.87;;
18653;SDS011;9456;47.824;16.228;2022-07-29T04:17:04;10.63;;;9.73;;
18653;SDS011;9456;47.824;16.228;2022-07-29T04:19:32;11.27;;;10.17;;
18653;SDS011;9456;47.824;16.228;2022-07-29T04:22:00;11.67;;;10.77;;
18653;SDS011;9456;47.824;16.228;2022-07-29T04:24:28;11.77;;;10.70;;
18653;SDS011;9456;47.824;16.228;2022-07-29T04:26:57;11.10;;;10.10;;
18653;SDS011;9456;47.824;16.228;2022-07-29T04:29:24;11.10;;;10.17;;
18653;SDS011;9456;47.824;16.228;2022-07-29T04:31:52;12.50;;;11.40;;
18653;SDS011;9456;47.824;16.228;2022-07-29T04:34:19;12.87;;;11.87;;
18653;SDS011;9456;47.824;16.228;2022-07-29T04:36:47;13.13;;;12.03;;
18653;SDS011;9456;47.824;16.228;2022-07-29T04:39:15;13.43;;;12.33;;
18653;SDS011;9456;47.824;16.228;2022-07-29T04:41:43;13.97;;;12.73;;
18653;SDS011;9456;47.824;16.228;2022-07-29T04:44:13;13.93;;;12.80;;
18653;SDS011;9456;47.824;16.228;2022-07-29T04:46:41;14.17;;;12.70;;
18653;SDS011;9456;47.824;16.228;2022-07-29T04:49:08;12.00;;;11.17;;
18653;SDS011;9456;47.824;16.228;2022-07-29T04:51:35;13.17;;;12.07;;
18653;SDS011;9456;47.824;16.228;2022-07-29T04:54:03;12.40;;;11.37;;
18653;SDS011;9456;47.824;16.228;2022-07-29T04:56:31;14.70;;;13.60;;
18653;SDS011;9456;47.824;16.228;2022-07-29T04:58:58;12.90;;;11.87;;
18653;SDS011;9456;47.824;16.228;2022-07-29T05:01:27;13.23;;;12.03;;
18653;SDS011;9456;47.824;16.228;2022-07-29T05:03:55;11.63;;;10.83;;
18653;SDS011;9456;47.824;16.228;2022-07-29T05:06:22;13.03;;;11.87;;
18653;SDS011;9456;47.824;16.228;2022-07-29T05:08:50;12.43;;;11.40;;
18653;SDS011;9456;47.824;16.228;2022-07-29T05:11:18;11.27;;;10.27;;
18653;SDS011;9456;47.824;16.228;2022-07-29T05:13:45;11.67;;;10.67;;
18653;SDS011;9456;47.824;16.228;2022-07-29T05:16:13;9.97;;;9.17;;
18653;SDS011;9456;47.824;16.228;2022-07-29T05:18:42;10.90;;;10.10;;
18653;SDS011;9456;47.824;16.228;2022-07-29T05:21:14;10.37;;;9.50;;
18653;SDS011;9456;47.824;16.228;2022-07-29T05:23:41;11.13;;;10.13;;
18653;SDS011;9456;47.824;16.228;2022-07-29T05:26:08;10.87;;;9.97;;
18653;SDS011;9456;47.824;16.228;2022-07-29T05:28:37;10.83;;;9.83;;
18653;SDS011;9456;47.824;16.228;2022-07-29T05:31:06;10.40;;;9.60;;
18653;SDS011;9456;47.824;16.228;2022-07-29T05:33:33;11.00;;;10.10;;
18653;SDS011;9456;47.824;16.228;2022-07-29T05:36:03;11.50;;;10.60;;
18653;SDS011;9456;47.824;16.228;2022-07-29T05:38:32;12.07;;;10.83;;
18653;SDS011;9456;47.824;16.228;2022-07-29T05:40:59;11.17;;;10.23;;
18653;SDS011;9456;47.824;16.228;2022-07-29T05:43:27;10.40;;;9.60;;
18653;SDS011;9456;47.824;16.228;2022-07-29T05:45:55;10.90;;;10.10;;
18653;SDS011;9456;47.824;16.228;2022-07-29T05:48:22;10.67;;;9.77;;
18653;SDS011;9456;47.824;16.228;2022-07-29T05:50:50;11.00;;;10.10;;
18653;SDS011;9456;47.824;16.228;2022-07-29T05:53:19;11.07;;;9.93;;
18653;SDS011;9456;47.824;16.228;2022-07-29T05:55:46;13.47;;;12.27;;
18653;SDS011;9456;47.824;16.228;2022-07-29T05:58:14;10.80;;;9.90;;
18653;SDS011;9456;47.824;16.228;2022-07-29T06:00:41;10.70;;;9.90;;
18653;SDS011;9456;47.824;16.228;2022-07-29T06:03:09;10.77;;;9.87;;
18653;SDS011;9456;47.824;16.228;2022-07-29T06:05:36;10.53;;;9.53;;
18653;SDS011;9456;47.824;16.228;2022-07-29T06:08:04;9.93;;;9.13;;
18653;SDS011;9456;47.824;16.228;2022-07-29T06:10:34;9.50;;;8.80;;
18653;SDS011;9456;47.824;16.228;2022-07-29T06:13:02;9.17;;;8.50;;
18653;SDS011;9456;47.824;16.228;2022-07-29T06:15:29;9.03;;;8.30;;
18653;SDS011;9456;47.824;16.228;2022-07-29T06:17:56;10.23;;;9.43;;
18653;SDS011;9456;47.824;16.228;2022-07-29T06:20:24;10.80;;;10.00;;
18653;SDS011;9456;47.824;16.228;2022-07-29T06:22:52;11.50;;;10.40;;
18653;SDS011;9456;47.824;16.228;2022-07-29T06:25:20;9.63;;;8.73;;
18653;SDS011;9456;47.824;16.228;2022-07-29T06:27:49;9.00;;;8.30;;
18653;SDS011;9456;47.824;16.228;2022-07-29T06:30:17;8.80;;;7.93;;
18653;SDS011;9456;47.824;16.228;2022-07-29T06:32:44;8.47;;;7.87;;
18653;SDS011;9456;47.824;16.228;2022-07-29T06:35:12;6.20;;;5.80;;
18653;SDS011;9456;47.824;16.228;2022-07-29T06:37:39;5.55;;;5.13;;
18653;SDS011;9456;47.824;16.228;2022-07-29T06:40:07;5.90;;;5.35;;
18653;SDS011;9456;47.824;16.228;2022-07-29T06:42:54;5.90;;;5.50;;
18653;SDS011;9456;47.824;16.228;2022-07-29T06:45:22;6.10;;;5.70;;
18653;SDS011;9456;47.824;16.228;2022-07-29T06:47:50;6.07;;;5.68;;
18653;SDS011;9456;47.824;16.228;2022-07-29T06:50:18;6.35;;;5.85;;
18653;SDS011;9456;47.824;16.228;2022-07-29T06:52:46;5.07;;;4.60;;
18653;SDS011;9456;47.824;16.228;2022-07-29T06:55:14;5.30;;;4.82;;
18653;SDS011;9456;47.824;16.228;2022-07-29T06:57:44;5.38;;;4.97;;
18653;SDS011;9456;47.824;16.228;2022-07-29T07:00:14;4.45;;;4.15;;
18653;SDS011;9456;47.824;16.228;2022-07-29T07:02:41;5.68;;;4.80;;
18653;SDS011;9456;47.824;16.228;2022-07-29T07:05:09;5.30;;;4.90;;
18653;SDS011;9456;47.824;16.228;2022-07-29T07:07:37;5.50;;;5.00;;
18653;SDS011;9456;47.824;16.228;2022-07-29T07:10:05;5.35;;;4.95;;
18653;SDS011;9456;47.824;16.228;2022-07-29T07:12:32;4.90;;;4.60;;
18653;SDS011;9456;47.824;16.228;2022-07-29T07:15:00;5.32;;;4.85;;
18653;SDS011;9456;47.824;16.228;2022-07-29T07:17:29;5.57;;;5.03;;
18653;SDS011;9456;47.824;16.228;2022-07-29T07:19:56;5.18;;;4.80;;
18653;SDS011;9456;47.824;16.228;2022-07-29T07:22:24;5.18;;;4.78;;
18653;SDS011;9456;47.824;16.228;2022-07-29T07:24:51;5.80;;;4.82;;
18653;SDS011;9456;47.824;16.228;2022-07-29T07:27:19;5.28;;;4.90;;
18653;SDS011;9456;47.824;16.228;2022-07-29T07:29:46;4.57;;;4.28;;
18653;SDS011;9456;47.824;16.228;2022-07-29T07:32:14;4.43;;;4.03;;
18653;SDS011;9456;47.824;16.228;2022-07-29T07:34:43;5.45;;;4.97;;
18653;SDS011;9456;47.824;16.228;2022-07-29T07:37:11;5.43;;;4.97;;
18653;SDS011;9456;47.824;16.228;2022-07-29T07:39:39;5.47;;;4.75;;
18653;SDS011;9456;47.824;16.228;2022-07-29T07:42:06;4.97;;;4.57;;
18653;SDS011;9456;47.824;16.228;2022-07-29T07:44:36;4.63;;;4.32;;
18653;SDS011;9456;47.824;16.228;2022-07-29T07:47:03;4.95;;;4.65;;
18653;SDS011;9456;47.824;16.228;2022-07-29T07:49:31;4.63;;;4.22;;
18653;SDS011;9456;47.824;16.228;2022-07-29T07:52:00;5.45;;;4.90;;
18653;SDS011;9456;47.824;16.228;2022-07-29T07:54:28;5.00;;;4.60;;
18653;SDS011;9456;47.824;16.228;2022-07-29T07:56:55;4.35;;;4.05;;
18653;SDS011;9456;47.824;16.228;2022-07-29T07:59:23;4.88;;;4.47;;
18653;SDS011;9456;47.824;16.228;2022-07-29T08:01:53;4.75;;;4.45;;
18653;SDS011;9456;47.824;16.228;2022-07-29T08:04:20;5.03;;;4.63;;
18653;SDS011;9456;47.824;16.228;2022-07-29T08:06:49;4.55;;;4.20;;
18653;SDS011;9456;47.824;16.228;2022-07-29T08:09:20;4.00;;;3.50;;
18653;SDS011;9456;47.824;16.228;2022-07-29T08:11:48;4.38;;;4.05;;
18653;SDS011;9456;47.824;16.228;2022-07-29T08:14:15;4.32;;;4.03;;
18653;SDS011;9456;47.824;16.228;2022-07-29T08:16:43;4.20;;;3.90;;
18653;SDS011;9456;47.824;16.228;2022-07-29T08:19:10;4.72;;;4.32;;
18653;SDS011;9456;47.824;16.228;2022-07-29T08:21:38;4.75;;;4.45;;
18653;SDS011;9456;47.824;16.228;2022-07-29T08:24:06;4.63;;;4.22;;
18653;SDS011;9456;47.824;16.228;2022-07-29T08:27:04;4.18;;;3.78;;
18653;SDS011;9456;47.824;16.228;2022-07-29T08:29:32;4.57;;;4.28;;
18653;SDS011;9456;47.824;16.228;2022-07-29T08:31:59;4.32;;;3.92;;
18653;SDS011;9456;47.824;16.228;2022-07-29T08:34:27;4.28;;;3.88;;
18653;SDS011;9456;47.824;16.228;2022-07-29T08:36:55;4.28;;;3.92;;
18653;SDS011;9456;47.824;16.228;2022-07-29T08:39:22;4.72;;;4.22;;
18653;SDS011;9456;47.824;16.228;2022-07-29T08:41:50;4.65;;;4.25;;
18653;SDS011;9456;47.824;16.228;2022-07-29T08:44:19;4.65;;;4.35;;
18653;SDS011;9456;47.824;16.228;2022-07-29T08:46:47;4.65;;;4.35;;
18653;SDS011;9456;47.824;16.228;2022-07-29T08:49:15;4.50;;;4.20;;
18653;SDS011;9456;47.824;16.228;2022-07-29T08:51:43;4.55;;;4.25;;
18653;SDS011;9456;47.824;16.228;2022-07-29T08:54:11;4.40;;;4.00;;
18653;SDS011;9456;47.824;16.228;2022-07-29T08:56:40;5.03;;;4.63;;
18653;SDS011;9456;47.824;16.228;2022-07-29T08:59:07;5.15;;;4.70;;
18653;SDS011;9456;47.824;16.228;2022-07-29T09:01:37;5.28;;;4.78;;
18653;SDS011;9456;47.824;16.228;2022-07-29T09:04:09;6.65;;;4.70;;
18653;SDS011;9456;47.824;16.228;2022-07-29T09:06:38;4.78;;;4.00;;
18653;SDS011;9456;47.824;16.228;2022-07-29T09:09:07;4.70;;;4.40;;
18653;SDS011;9456;47.824;16.228;2022-07-29T09:11:34;5.38;;;4.85;;
18653;SDS011;9456;47.824;16.228;2022-07-29T09:14:02;4.68;;;4.28;;
18653;SDS011;9456;47.824;16.228;2022-07-29T09:16:45;4.47;;;4.07;;
18653;SDS011;9456;47.824;16.228;2022-07-29T09:19:19;7.65;;;4.03;;
18653;SDS011;9456;47.824;16.228;2022-07-29T09:21:46;4.38;;;4.00;;
18653;SDS011;9456;47.824;16.228;2022-07-29T09:24:27;3.88;;;3.58;;
18653;SDS011;9456;47.824;16.228;2022-07-29T09:26:54;4.60;;;4.25;;
18653;SDS011;9456;47.824;16.228;2022-07-29T09:29:22;4.63;;;4.20;;
18653;SDS011;9456;47.824;16.228;2022-07-29T09:31:52;4.00;;;3.70;;
18653;SDS011;9456;47.824;16.228;2022-07-29T09:34:23;3.95;;;3.75;;
18653;SDS011;9456;47.824;16.228;2022-07-29T09:36:52;5.50;;;3.90;;
18653;SDS011;9456;47.824;16.228;2022-07-29T09:39:29;4.10;;;3.80;;
18653;SDS011;9456;47.824;16.228;2022-07-29T09:41:57;5.32;;;4.30;;
18653;SDS011;9456;47.824;16.228;2022-07-29T09:44:24;4.70;;;3.95;;
18653;SDS011;9456;47.824;16.228;2022-07-29T09:46:57;4.13;;;3.75;;
18653;SDS011;9456;47.824;16.228;2022-07-29T09:49:30;4.40;;;4.00;;
18653;SDS011;9456;47.824;16.228;2022-07-29T09:51:58;4.05;;;3.47;;
18653;SDS011;9456;47.824;16.228;2022-07-29T09:54:26;3.58;;;3.30;;
18653;SDS011;9456;47.824;16.228;2022-07-29T09:56:59;4.18;;;3.90;;
18653;SDS011;9456;47.824;16.228;2022-07-29T09:59:26;4.30;;;3.95;;
18653;SDS011;9456;47.824;16.228;2022-07-29T10:01:54;3.88;;;3.67;;
18653;SDS011;9456;47.824;16.228;2022-07-29T10:04:22;3.90;;;3.50;;
18653;SDS011;9456;47.824;16.228;2022-07-29T10:06:57;3.88;;;3.58;;
18653;SDS011;9456;47.824;16.228;2022-07-29T10:09:25;3.95;;;3.67;;
18653;SDS011;9456;47.824;16.228;2022-07-29T10:12:02;4.20;;;3.80;;
18653;SDS011;9456;47.824;16.228;2022-07-29T10:14:30;3.70;;;3.40;;
18653;SDS011;9456;47.824;16.228;2022-07-29T10:16:58;4.53;;;4.13;;
18653;SDS011;9456;47.824;16.228;2022-07-29T10:19:28;3.25;;;3.05;;
18653;SDS011;9456;47.824;16.228;2022-07-29T10:21:57;4.90;;;3.55;;
18653;SDS011;9456;47.824;16.228;2022-07-29T10:24:25;4.53;;;4.13;;
18653;SDS011;9456;47.824;16.228;2022-07-29T10:26:53;3.95;;;3.67;;
18653;SDS011;9456;47.824;16.228;2022-07-29T10:29:21;3.20;;;3.00;;
18653;SDS011;9456;47.824;16.228;2022-07-29T10:31:52;3.83;;;3.55;;
18653;SDS011;9456;47.824;16.228;2022-07-29T10:34:23;3.30;;;3.10;;
18653;SDS011;9456;47.824;16.228;2022-07-29T10:36:59;3.63;;;3.33;;
18653;SDS011;9456;47.824;16.228;2022-07-29T10:39:33;3.08;;;2.88;;
18653;SDS011;9456;47.824;16.228;2022-07-29T10:42:06;3.45;;;3.25;;
18653;SDS011;9456;47.824;16.228;2022-07-29T10:44:36;3.17;;;2.97;;
18653;SDS011;9456;47.824;16.228;2022-07-29T10:47:06;3.45;;;3.22;;
18653;SDS011;9456;47.824;16.228;2022-07-29T10:49:34;3.05;;;2.75;;
18653;SDS011;9456;47.824;16.228;2022-07-29T10:52:04;3.03;;;2.83;;
18653;SDS011;9456;47.824;16.228;2022-07-29T10:54:39;4.10;;;2.63;;
18653;SDS011;9456;47.824;16.228;2022-07-29T10:57:18;3.25;;;2.95;;
18653;SDS011;9456;47.824;16.228;2022-07-29T10:59:46;3.10;;;2.75;;
18653;SDS011;9456;47.824;16.228;2022-07-29T11:05:01;3.25;;;3.00;;
18653;SDS011;9456;47.824;16.228;2022-07-29T11:07:30;2.85;;;2.70;;
18653;SDS011;9456;47.824;16.228;2022-07-29T11:12:45;3.05;;;2.85;;
18653;SDS011;9456;47.824;16.228;2022-07-29T11:15:13;3.28;;;2.97;;
18653;SDS011;9456;47.824;16.228;2022-07-29T11:20:30;4.15;;;3.00;;
18653;SDS011;9456;47.824;16.228;2022-07-29T11:22:59;3.30;;;3.10;;
18653;SDS011;9456;47.824;16.228;2022-07-29T11:25:27;3.33;;;2.60;;
18653;SDS011;9456;47.824;16.228;2022-07-29T11:28:07;3.05;;;2.85;;
18653;SDS011;9456;47.824;16.228;2022-07-29T11:30:48;3.08;;;2.88;;
18653;SDS011;9456;47.824;16.228;2022-07-29T11:33:28;3.10;;;2.80;;
18653;SDS011;9456;47.824;16.228;2022-07-29T11:36:09;2.78;;;2.58;;
18653;SDS011;9456;47.824;16.228;2022-07-29T11:38:39;2.88;;;2.67;;
18653;SDS011;9456;47.824;16.228;2022-07-29T11:41:19;5.13;;;4.63;;
18653;SDS011;9456;47.824;16.228;2022-07-29T11:43:47;3.42;;;3.13;;
18653;SDS011;9456;47.824;16.228;2022-07-29T11:46:16;3.20;;;3.00;;
18653;SDS011;9456;47.824;16.228;2022-07-29T11:48:44;3.22;;;2.92;;
18653;SDS011;9456;47.824;16.228;2022-07-29T11:51:12;5.30;;;2.75;;
18653;SDS011;9456;47.824;16.228;2022-07-29T11:53:40;2.78;;;2.60;;
18653;SDS011;9456;47.824;16.228;2022-07-29T11:56:14;3.58;;;3.00;;
18653;SDS011;9456;47.824;16.228;2022-07-29T11:58:41;2.95;;;2.80;;
18653;SDS011;9456;47.824;16.228;2022-07-29T12:01:12;6.50;;;4.28;;
18653;SDS011;9456;47.824;16.228;2022-07-29T12:03:40;4.25;;;3.70;;
18653;SDS011;9456;47.824;16.228;2022-07-29T12:06:11;4.43;;;3.97;;
18653;SDS011;9456;47.824;16.228;2022-07-29T12:08:41;4.25;;;3.85;;
18653;SDS011;9456;47.824;16.228;2022-07-29T12:11:15;5.75;;;3.83;;
18653;SDS011;9456;47.824;16.228;2022-07-29T12:13:42;3.72;;;3.50;;
18653;SDS011;9456;47.824;16.228;2022-07-29T12:16:10;3.95;;;3.25;;
18653;SDS011;9456;47.824;16.228;2022-07-29T12:18:37;3.58;;;3.28;;
18653;SDS011;9456;47.824;16.228;2022-07-29T12:21:05;4.18;;;3.67;;
18653;SDS011;9456;47.824;16.228;2022-07-29T12:23:33;4.38;;;3.50;;
18653;SDS011;9456;47.824;16.228;2022-07-29T12:26:03;3.80;;;3.50;;
18653;SDS011;9456;47.824;16.228;2022-07-29T12:28:31;3.97;;;3.60;;
18653;SDS011;9456;47.824;16.228;2022-07-29T12:31:03;3.75;;;3.38;;
18653;SDS011;9456;47.824;16.228;2022-07-29T12:33:33;3.50;;;3.10;;
18653;SDS011;9456;47.824;16.228;2022-07-29T12:36:01;3.33;;;3.13;;
18653;SDS011;9456;47.824;16.228;2022-07-29T12:38:29;3.47;;;2.95;;
18653;SDS011;9456;47.824;16.228;2022-07-29T12:40:57;3.88;;;2.80;;
18653;SDS011;9456;47.824;16.228;2022-07-29T12:43:27;2.63;;;2.40;;
18653;SDS011;9456;47.824;16.228;2022-07-29T12:45:56;3.10;;;2.88;;
18653;SDS011;9456;47.824;16.228;2022-07-29T12:48:33;4.95;;;2.90;;
18653;SDS011;9456;47.824;16.228;2022-07-29T12:51:01;3.08;;;2.88;;
18653;SDS011;9456;47.824;16.228;2022-07-29T12:53:29;3.22;;;2.60;;
18653;SDS011;9456;47.824;16.228;2022-07-29T12:55:59;3.00;;;2.80;;
18653;SDS011;9456;47.824;16.228;2022-07-29T12:58:32;6.72;;;6.15;;
18653;SDS011;9456;47.824;16.228;2022-07-29T13:01:01;4.43;;;4.07;;
18653;SDS011;9456;47.824;16.228;2022-07-29T13:03:40;3.15;;;2.95;;
18653;SDS011;9456;47.824;16.228;2022-07-29T13:08:58;3.05;;;2.85;;
18653;SDS011;9456;47.824;16.228;2022-07-29T13:11:29;3.30;;;3.00;;
18653;SDS011;9456;47.824;16.228;2022-07-29T13:13:58;3.60;;;3.15;;
18653;SDS011;9456;47.824;16.228;2022-07-29T13:16:25;3.15;;;2.85;;
18653;SDS011;9456;47.824;16.228;2022-07-29T13:19:05;5.25;;;2.97;;
18653;SDS011;9456;47.824;16.228;2022-07-29T13:21:33;3.90;;;3.50;;
18653;SDS011;9456;47.824;16.228;2022-07-29T13:24:01;4.28;;;3.88;;
18653;SDS011;9456;47.824;16.228;2022-07-29T13:26:28;5.53;;;4.05;;
18653;SDS011;9456;47.824;16.228;2022-07-29T13:28:58;7.57;;;3.58;;
18653;SDS011;9456;47.824;16.228;2022-07-29T13:31:25;4.68;;;4.30;;
18653;SDS011;9456;47.824;16.228;2022-07-29T13:33:53;6.47;;;3.78;;
18653;SDS011;9456;47.824;16.228;2022-07-29T13:36:21;4.25;;;3.83;;
18653;SDS011;9456;47.824;16.228;2022-07-29T13:38:49;4.70;;;4.20;;
18653;SDS011;9456;47.824;16.228;2022-07-29T13:41:16;6.18;;;4.32;;
18653;SDS011;9456;47.824;16.228;2022-07-29T13:43:44;4.88;;;4.50;;
18653;SDS011;9456;47.824;16.228;2022-07-29T13:46:13;4.88;;;4.53;;
18653;SDS011;9456;47.824;16.228;2022-07-29T13:48:41;4.47;;;4.05;;
18653;SDS011;9456;47.824;16.228;2022-07-29T13:51:08;4.10;;;3.80;;
18653;SDS011;9456;47.824;16.228;2022-07-29T13:53:35;4.80;;;4.40;;
18653;SDS011;9456;47.824;16.228;2022-07-29T13:56:03;4.05;;;3.75;;
18653;SDS011;9456;47.824;16.228;2022-07-29T13:58:32;3.70;;;3.40;;
18653;SDS011;9456;47.824;16.228;2022-07-29T14:00:59;3.35;;;3.10;;
18653;SDS011;9456;47.824;16.228;2022-07-29T14:03:28;3.90;;;3.60;;
18653;SDS011;9456;47.824;16.228;2022-07-29T14:05:56;3.72;;;3.42;;
18653;SDS011;9456;47.824;16.228;2022-07-29T14:08:25;3.45;;;3.25;;
18653;SDS011;9456;47.824;16.228;2022-07-29T14:10:52;3.67;;;3.38;;
18653;SDS011;9456;47.824;16.228;2022-07-29T14:13:19;3.70;;;3.40;;
18653;SDS011;9456;47.824;16.228;2022-07-29T14:15:47;3.40;;;3.17;;
18653;SDS011;9456;47.824;16.228;2022-07-29T14:18:16;3.78;;;3.47;;
18653;SDS011;9456;47.824;16.228;2022-07-29T14:20:45;3.45;;;3.05;;
18653;SDS011;9456;47.824;16.228;2022-07-29T14:23:13;3.22;;;2.92;;
18653;SDS011;9456;47.824;16.228;2022-07-29T14:25:40;3.15;;;2.85;;
18653;SDS011;9456;47.824;16.228;2022-07-29T14:28:08;3.20;;;3.00;;
18653;SDS011;9456;47.824;16.228;2022-07-29T14:30:35;3.20;;;3.00;;
18653;SDS011;9456;47.824;16.228;2022-07-29T14:33:02;3.40;;;3.20;;
18653;SDS011;9456;47.824;16.228;2022-07-29T14:35:30;3.17;;;2.97;;
18653;SDS011;9456;47.824;16.228;2022-07-29T14:37:59;2.97;;;2.77;;
18653;SDS011;9456;47.824;16.228;2022-07-29T14:40:26;3.27;;;2.80;;
18653;SDS011;9456;47.824;16.228;2022-07-29T14:42:54;3.30;;;3.00;;
18653;SDS011;9456;47.824;16.228;2022-07-29T14:45:21;2.90;;;2.70;;
18653;SDS011;9456;47.824;16.228;2022-07-29T14:47:49;3.10;;;2.90;;
18653;SDS011;9456;47.824;16.228;2022-07-29T14:50:16;2.83;;;2.63;;
18653;SDS011;9456;47.824;16.228;2022-07-29T14:52:44;3.07;;;2.80;;
18653;SDS011;9456;47.824;16.228;2022-07-29T14:55:13;3.20;;;3.00;;
18653;SDS011;9456;47.824;16.228;2022-07-29T14:57:41;3.23;;;3.03;;
18653;SDS011;9456;47.824;16.228;2022-07-29T15:00:09;3.00;;;2.80;;
18653;SDS011;9456;47.824;16.228;2022-07-29T15:02:39;2.53;;;2.33;;
18653;SDS011;9456;47.824;16.228;2022-07-29T15:05:06;2.80;;;2.60;;
18653;SDS011;9456;47.824;16.228;2022-07-29T15:07:34;2.70;;;2.53;;
18653;SDS011;9456;47.824;16.228;2022-07-29T15:10:02;3.10;;;2.80;;
18653;SDS011;9456;47.824;16.228;2022-07-29T15:12:31;2.80;;;2.70;;
18653;SDS011;9456;47.824;16.228;2022-07-29T15:14:59;2.40;;;2.30;;
18653;SDS011;9456;47.824;16.228;2022-07-29T15:17:26;2.80;;;2.60;;
18653;SDS011;9456;47.824;16.228;2022-07-29T15:19:54;2.90;;;2.47;;
18653;SDS011;9456;47.824;16.228;2022-07-29T15:22:21;2.70;;;2.50;;
18653;SDS011;9456;47.824;16.228;2022-07-29T15:24:49;2.87;;;2.73;;
18653;SDS011;9456;47.824;16.228;2022-07-29T15:27:17;3.03;;;2.83;;
18653;SDS011;9456;47.824;16.228;2022-07-29T15:29:46;2.80;;;2.70;;
18653;SDS011;9456;47.824;16.228;2022-07-29T15:32:13;3.23;;;2.70;;
18653;SDS011;9456;47.824;16.228;2022-07-29T15:34:41;2.70;;;2.50;;
18653;SDS011;9456;47.824;16.228;2022-07-29T15:37:08;2.73;;;2.53;;
18653;SDS011;9456;47.824;16.228;2022-07-29T15:39:36;2.60;;;2.47;;
18653;SDS011;9456;47.824;16.228;2022-07-29T15:42:04;2.80;;;2.70;;
18653;SDS011;9456;47.824;16.228;2022-07-29T15:44:31;2.57;;;2.43;;
18653;SDS011;9456;47.824;16.228;2022-07-29T15:47:00;2.77;;;2.57;;
18653;SDS011;9456;47.824;16.228;2022-07-29T15:49:31;2.80;;;2.60;;
18653;SDS011;9456;47.824;16.228;2022-07-29T15:51:59;2.67;;;2.47;;
18653;SDS011;9456;47.824;16.228;2022-07-29T15:54:28;2.90;;;2.57;;
18653;SDS011;9456;47.824;16.228;2022-07-29T15:56:55;2.67;;;2.57;;
18653;SDS011;9456;47.824;16.228;2022-07-29T15:59:23;2.97;;;2.77;;
18653;SDS011;9456;47.824;16.228;2022-07-29T16:01:50;2.70;;;2.60;;
18653;SDS011;9456;47.824;16.228;2022-07-29T16:04:19;2.83;;;2.63;;
18653;SDS011;9456;47.824;16.228;2022-07-29T16:06:47;3.00;;;2.80;;
18653;SDS011;9456;47.824;16.228;2022-07-29T16:09:14;2.77;;;2.57;;
18653;SDS011;9456;47.824;16.228;2022-07-29T16:11:42;3.03;;;2.80;;
18653;SDS011;9456;47.824;16.228;2022-07-29T16:14:10;2.65;;;2.45;;
18653;SDS011;9456;47.824;16.228;2022-07-29T16:16:37;3.07;;;2.80;;
18653;SDS011;9456;47.824;16.228;2022-07-29T16:19:05;3.57;;;2.97;;
18653;SDS011;9456;47.824;16.228;2022-07-29T16:21:35;2.73;;;2.53;;
18653;SDS011;9456;47.824;16.228;2022-07-29T16:24:03;3.10;;;2.87;;
18653;SDS011;9456;47.824;16.228;2022-07-29T16:26:32;3.33;;;3.13;;
18653;SDS011;9456;47.824;16.228;2022-07-29T16:28:59;3.50;;;3.20;;
18653;SDS011;9456;47.824;16.228;2022-07-29T16:31:27;3.60;;;3.30;;
18653;SDS011;9456;47.824;16.228;2022-07-29T16:33:55;4.10;;;3.80;;
18653;SDS011;9456;47.824;16.228;2022-07-29T16:36:22;3.40;;;3.20;;
18653;SDS011;9456;47.824;16.228;2022-07-29T16:38:51;2.80;;;2.70;;
18653;SDS011;9456;47.824;16.228;2022-07-29T16:41:19;3.03;;;2.83;;
18653;SDS011;9456;47.824;16.228;2022-07-29T16:43:46;2.77;;;2.60;;
18653;SDS011;9456;47.824;16.228;2022-07-29T16:46:14;3.13;;;2.93;;
18653;SDS011;9456;47.824;16.228;2022-07-29T16:48:41;3.07;;;2.87;;
18653;SDS011;9456;47.824;16.228;2022-07-29T16:51:09;2.97;;;2.67;;
18653;SDS011;9456;47.824;16.228;2022-07-29T16:53:36;3.53;;;3.20;;
18653;SDS011;9456;47.824;16.228;2022-07-29T16:56:05;3.37;;;3.17;;
18653;SDS011;9456;47.824;16.228;2022-07-29T16:58:33;3.27;;;3.07;;
18653;SDS011;9456;47.824;16.228;2022-07-29T17:01:00;3.40;;;3.10;;
18653;SDS011;9456;47.824;16.228;2022-07-29T17:03:28;3.23;;;3.03;;
18653;SDS011;9456;47.824;16.228;2022-07-29T17:05:55;3.13;;;2.90;;
18653;SDS011;9456;47.824;16.228;2022-07-29T17:08:23;3.30;;;3.10;;
18653;SDS011;9456;47.824;16.228;2022-07-29T17:10:50;3.60;;;3.30;;
18653;SDS011;9456;47.824;16.228;2022-07-29T17:13:19;3.50;;;3.20;;
18653;SDS011;9456;47.824;16.228;2022-07-29T17:15:47;3.40;;;3.20;;
18653;SDS011;9456;47.824;16.228;2022-07-29T17:18:15;2.90;;;2.70;;
18653;SDS011;9456;47.824;16.228;2022-07-29T17:20:42;3.30;;;3.10;;
18653;SDS011;9456;47.824;16.228;2022-07-29T17:23:10;3.73;;;3.47;;
18653;SDS011;9456;47.824;16.228;2022-07-29T17:25:38;4.77;;;3.30;;
18653;SDS011;9456;47.824;16.228;2022-07-29T17:28:05;3.40;;;3.20;;
18653;SDS011;9456;47.824;16.228;2022-07-29T17:30:34;3.50;;;3.30;;
18653;SDS011;9456;47.824;16.228;2022-07-29T17:33:02;3.30;;;3.10;;
18653;SDS011;9456;47.824;16.228;2022-07-29T17:35:29;3.20;;;3.00;;
18653;SDS011;9456;47.824;16.228;2022-07-29T17:38:14;3.63;;;3.33;;
18653;SDS011;9456;47.824;16.228;2022-07-29T17:40:41;3.80;;;3.50;;
18653;SDS011;9456;47.824;16.228;2022-07-29T17:43:09;3.47;;;3.17;;
18653;SDS011;9456;47.824;16.228;2022-07-29T17:45:38;4.00;;;3.70;;
18653;SDS011;9456;47.824;16.228;2022-07-29T17:48:06;4.03;;;3.73;;
18653;SDS011;9456;47.824;16.228;2022-07-29T17:50:33;4.00;;;3.60;;
18653;SDS011;9456;47.824;16.228;2022-07-29T17:53:01;4.33;;;3.60;;
18653;SDS011;9456;47.824;16.228;2022-07-29T17:55:28;3.87;;;3.53;;
18653;SDS011;9456;47.824;16.228;2022-07-29T17:57:56;3.33;;;3.07;;
18653;SDS011;9456;47.824;16.228;2022-07-29T18:00:24;3.53;;;3.33;;
18653;SDS011;9456;47.824;16.228;2022-07-29T18:02:53;3.90;;;3.60;;
18653;SDS011;9456;47.824;16.228;2022-07-29T18:05:21;3.50;;;3.20;;
18653;SDS011;9456;47.824;16.228;2022-07-29T18:07:49;3.57;;;3.30;;
18653;SDS011;9456;47.824;16.228;2022-07-29T18:10:17;3.37;;;3.17;;
18653;SDS011;9456;47.824;16.228;2022-07-29T18:12:45;4.33;;;4.03;;
18653;SDS011;9456;47.824;16.228;2022-07-29T18:15:13;3.40;;;3.20;;
18653;SDS011;9456;47.824;16.228;2022-07-29T18:17:40;4.07;;;3.67;;
18653;SDS011;9456;47.824;16.228;2022-07-29T18:20:10;3.50;;;3.30;;
18653;SDS011;9456;47.824;16.228;2022-07-29T18:22:38;3.53;;;3.23;;